Airfield :
LOGIN :

Register | Disclaimer

   EN    FR    IT 

 










Legend :    VFR   Marginal VFR   IFR   Intensive IFR   Very Intensive IFR
Visi :
Ceiling :
>= 8 km
>= 3000ft
5 to 8 km
1000 to 3000 ft
1500m to 5 km
500 to 1000 ft
800 to 1500m
200 to 500 ft
< 800m
< 200 ft
Symbols :   Thunderstorms  Fog  Heavy snow  Heavy precipitations  Wind > 20 kt
SIGMETs :     Misc.  Thunderstorms  Icing  Turbulence  Mountain Waves  Volcanic Ashes







- Airport Elevation : 72 ft
- IATA code : UDE


EHVK - Volkel Airbase

CURRENT METAR :
  • 241725Z AUTO 35003KT 320V020 9999 FEW042 11/06 Q1035 BLU

EXPIRED METARs :
  • 241655Z AUTO 35006KT 310V030 9999 SCT039 BKN045 BKN063 13/05 Q1035 BLU
  • 241625Z AUTO 30005KT 270V340 9999 NCD 13/06 Q1034 BLU
  • 241555Z AUTO 33007KT 280V010 9999 NCD 14/04 Q1034 BLU
  • 241525Z AUTO 34007KT 280V010 9999 FEW044 14/06 Q1034 BLU
  • 241455Z AUTO 33008KT 280V010 9999 FEW060 15/03 Q1034 BLU

TAF TAF EHVK
Valid from the 24 at 17:00 until the 25 at 05:00 UTC


241601Z 2417/2505 30007KT CAVOK
TEMPO 2417/2419 FEW025CB BKN035
BECMG 2417/2420 27003KT
PROB40 2502/2505 2500 BR MIFG
No reported NOTAMs for that airfield.



MET'MAP, your aeronautical weather chart ! - Copyright ORBIFLY December 2007 - Disclaimer

ORBIFLY MET'MAP TEAM :

Programming & Development : Alexandra Zaïnal
Concept & Development : Baudouin d'Aumeries
Co-Development & Prog : Marc-Olivier Méhu
Technical & hardware support : Manuel Goepfert

Contact : metmap@orbifly.com




SOURCES & CREDITS :

   NOAA